Marfa, TX

7:07 PM CDT on August 25, 2016 (GMT -0500)
APRSWXNET | | Change Station

Elev 4908 ft 30.37 °N, 103.78 °W | Updated 37 minutes ago

Overcast
Overcast
75 °F
Feels Like 77 °F
N
0
Wind Variable Wind from West
Gusts 5.0 mph

Today
High -- | Low -- °F
--% Chance of Precip.
Yesterday
High -- | Low -- °F
Precip. -- in
Pressure 30.18 in
Visibility 10.0 miles
Clouds Scattered Clouds 5500 ft
Overcast 11000 ft
Heat Index 77 °F
Dew Point 59 °F
Humidity 57%
Rainfall in
Snow Depth Not available.
7:29 AM 8:26 PM
Last Quarter, 40% visible
METAR KE38 252355Z AUTO 00000KT 10SM SCT055 OVC110 25/15 A3018 RMK AO2 LTG DSNT NE T02480149 10271 20241
Pressure 30.18 in
Visibility 10.0 miles
Clouds Scattered Clouds 5500 ft
Overcast 11000 ft
Heat Index 77 °F
Dew Point 59 °F
Humidity 57%
Rainfall in
Snow Depth Not available.
7:29 AM 8:26 PM
Last Quarter, 40% visible
METAR KE38 252355Z AUTO 00000KT 10SM SCT055 OVC110 25/15 A3018 RMK AO2 LTG DSNT NE T02480149 10271 20241
A tropical disturbance pushing toward the Bahamas, is expected to develop into a tropical depression or storm, and will likely target Florida and the Gulf Coast this weekend into next week.

Right now, the disturbance remains a broad area of low pressure pushing through the Dominican Republic and Haiti, headed toward the southeast Bahamas. Rainfall totals over 3 inches (with locally higher amounts) are expected in HispaƱiola, particularly over elevated terrain.

10-Day Weather Forecast

Almanac

Astronomy

Aug. 25, 2016 Rise Set
Actual Time
Civil Twilight
Nautical Twilight
Astronomical Twilight
Moon
Length of Visible Light
Length of Day
Tomorrow will be .
, % of the Moon is Illuminated

Today's Extremes

State Highs State Lows

Community

WunderPhotos

Upload Photos

1,934,970 photos uploaded!

WunderBlog® & News

Nearby

Air Quality

  Air Quality AQ Index Pollutant
Not available.

Snow Depth

Station Depth Elevation

Earthquake Activity

City Distance Mag. Time & Date
Minimum magnitude displayed is 2.5.

Coastal Water Temperatures

Place Temperature

Stations

Nearby Weather Stations

Station Location Temp. Windchill Dew Point Humidity Wind Precip. Elev Updated Type
                   

Watches & Warnings

There are currently no watches in effect.